This is the latest recevied weather packets stored in our database for station/object R2AJV-13. If no packets are shown the sender has not sent any weather packets the latest 10 day(s).
| Time | Temp. | Humidity | Pressure | Rain* | Wind** | Luminosity | Snow |
|---|---|---|---|---|---|---|---|
| 1778085947 | 16.67° C | 52% | 996.7 hPa | 0 mm | - | - | - |
| 1778085037 | 17.22° C | 50% | 996.6 hPa | 0 mm | - | - | - |
| 1778084126 | 18.33° C | 49% | 996.5 hPa | 0 mm | - | - | - |
| 1778083276 | 18.33° C | 47% | 996.4 hPa | 0 mm | - | - | - |
| 1778082371 | 19.44° C | 47% | 996.2 hPa | 0 mm | - | - | - |
| 1778081460 | 19.44° C | 46% | 996.2 hPa | 0 mm | - | - | - |
| 1778080550 | 20.56° C | 45% | 996.2 hPa | 0 mm | - | - | - |
| 1778079638 | 20.56° C | 44% | 996 hPa | 0 mm | - | - | - |
| 1778078729 | 21.11° C | 45% | 996 hPa | 0 mm | - | - | - |
| 1778077823 | 20.56° C | 45% | 995.8 hPa | 0 mm | - | - | - |
| 1778076973 | 21.11° C | 44% | 995.7 hPa | 0 mm | - | - | - |
| 1778076062 | 21.11° C | 46% | 995.7 hPa | 0 mm | - | - | - |
| 1778075152 | 21.67° C | 46% | 995.7 hPa | 0 mm | - | - | - |
| 1778074247 | 21.67° C | 45% | 995.6 hPa | 0 mm | - | - | - |
| 1778073335 | 21.67° C | 45% | 995.5 hPa | 0 mm | - | - | - |
| 1778072458 | 21.67° C | 46% | 995.4 hPa | 0 mm | - | - | - |
| 1778071546 | 21.11° C | 47% | 995.3 hPa | 0 mm | - | - | - |
| 1778069727 | 22.22° C | 44% | 995.1 hPa | 0 mm | - | - | - |
| 1778068876 | 21.67° C | 46% | 995.2 hPa | 0 mm | - | - | - |
| 1778067970 | 22.22° C | 45% | 995 hPa | 0 mm | - | - | - |
| 1778067060 | 22.22° C | 45% | 994.9 hPa | 0 mm | - | - | - |
| 1778066150 | 19.44° C | 50% | 994.8 hPa | 0 mm | - | - | - |
| 1778065238 | 20° C | 50% | 994.8 hPa | 0 mm | - | - | - |
| 1778063422 | 22.22° C | 49% | 994.5 hPa | 0 mm | - | - | - |
| 1778062573 | 21.11° C | 53% | 994.4 hPa | 0 mm | - | - | - |
* Rain latest hour (hover to see other rain measurements)
** Current wind speed in m/s (hover to see current wind gust speed)